Apalachicola, FL

1:23 PM EDT on September 30, 2014 (GMT -0400)
Northwest Florida Beaches International | Change Station
CLOSE
Current Station
Airport
Location: Panama City,
Elevation: 69 ft
Nearby Weather Stations
Active Advisory: Coastal Hazard Statement

Elev 69 ft 30.36 °N, 85.80 °W | Updated 30 minutes ago

Mostly Cloudy
Mostly Cloudy
78 °F
Feels Like 78 °F
N
7
Wind Variable Wind from North

Today
High -- | Low -- °F
--% Chance of Precip.
Yesterday
High -- | Low -- °F
Precip. -- in
7:32 AM 7:26 PM
Waxing Crescent, 38% visible
Pressure 29.93 in
Visibility 10.0 miles
Clouds Overcast 1800 ft
Dew Point 69 °F
Humidity 74%
Rainfall 0.02 in
Snow Depth Not available.
UV 3 out of 12
Pollen 7.70 out of 12
Air Quality Not available.
Flu Activity Not available.
METAR KECP 301653Z 01006KT 10SM OVC018 26/21 A2990 RMK AO2 SLP134 T02560206

More Conditions Fewer Conditions

Pressure 29.93 in
Visibility 10.0 miles
Clouds Overcast 1800 ft
Dew Point 69 °F
Humidity 74%
Rainfall 0.02 in
Snow Depth Not available.
UV 3 out of 12
Pollen 7.70 out of 12
Air Quality Not available.
Flu Activity Not available.
METAR KECP 301653Z 01006KT 10SM OVC018 26/21 A2990 RMK AO2 SLP134 T02560206

More Conditions Fewer Conditions

10-Day Weather Forecast

Almanac

Astronomy

Sep. 30, 2014 Rise Set
Actual Time 7:32 AM EDT 7:26 PM EDT
Civil Twilight 7:08 AM EDT 7:50 PM EDT
Nautical Twilight 6:41 AM EDT 8:18 PM EDT
Astronomical Twilight 6:13 AM EDT 8:45 PM EDT
Moon 1:20 PM EDT No Moon Set
Length of Visible Light 12h 41m
Length of Day
11h 53m
Tomorrow will be 1m 47s shorter.
Waxing Crescent, 38% of the Moon is Illuminated
Today
Waxing Crescent
Oct 1
First Quarter
Oct 8
Full
Oct 15
Last Quarter
Oct 23
New

Today's Extremes

State Highs State Lows

Community

WunderPhotos

Upload Photos

1,757,688 photos uploaded!

Nearby

Snow Depth

Station Depth Elevation
No new snow has been reported.

Earthquake Activity

City Distance Mag. Time & Date
No recent earthquake activity has been reported nearby.
Minimum magnitude displayed is 2.5.

Coastal Water Temperatures

Place Temperature
Panama City, FL 79.0 °F
Panama City Beach, FL 81.0 °F
Apalachicola, FL 78.1 °F

Nearby Weather Stations